Time;durP1;ratioP1;P1;durP2;ratioP2;P2;SDS_P1;SDS_P2;PMS_P1;PMS_P2;Temp;Humidity;BMP_temperature;BMP_pressure;BME280_temperature;BME280_humidity;BME280_pressure;Samples;Min_cycle;Max_cycle;Signal;HPM_P1;HPM_P2
2021/10/29 00:00:39;;;;;;;31.92;15.35;;;;;;;;;;4995386;28;20098;-72
2021/10/29 00:03:05;;;;;;;32.17;15.73;;;;;;;;;;5000025;28;20702;-71
2021/10/29 00:05:33;;;;;;;33.55;16.15;;;;;;;;;;5001689;28;20151;-71
2021/10/29 00:07:59;;;;;;;32.92;15.73;;;;;;;;;;4986951;28;20050;-71
2021/10/29 00:10:26;;;;;;;33.03;15.68;;;;;;;;;;4994360;28;20054;-70
2021/10/29 00:12:53;;;;;;;32.80;15.23;;;;;;;;;;4991535;28;20079;-71
2021/10/29 00:15:20;;;;;;;28.35;14.32;;;;;;;;;;5000682;28;20054;-70
2021/10/29 00:17:47;;;;;;;33.92;16.55;;;;;;;;;;4991219;28;20050;-69
2021/10/29 00:20:13;;;;;;;44.78;14.75;;;;;;;;;;5001329;28;20041;-70
2021/10/29 00:22:40;;;;;;;30.23;15.38;;;;;;;;;;4995476;28;20050;-69
2021/10/29 00:25:06;;;;;;;31.48;15.68;;;;;;;;;;4989336;28;20053;-69
2021/10/29 00:27:32;;;;;;;34.97;15.45;;;;;;;;;;5004809;28;20053;-70
2021/10/29 00:29:59;;;;;;;33.15;16.10;;;;;;;;;;5012527;28;20048;-70
2021/10/29 00:32:27;;;;;;;29.15;14.63;;;;;;;;;;5010998;28;20308;-70
2021/10/29 00:34:53;;;;;;;30.50;15.77;;;;;;;;;;4992168;28;20048;-70
2021/10/29 00:37:20;;;;;;;32.15;15.07;;;;;;;;;;4991994;28;20458;-70
2021/10/29 00:39:46;;;;;;;30.38;15.10;;;;;;;;;;5001976;28;20050;-70
2021/10/29 00:42:12;;;;;;;30.45;14.75;;;;;;;;;;4994530;28;20057;-70
2021/10/29 00:44:39;;;;;;;29.15;15.10;;;;;;;;;;5002596;28;20062;-71
2021/10/29 00:47:05;;;;;;;34.03;15.65;;;;;;;;;;4996545;28;20054;-71
2021/10/29 00:49:31;;;;;;;28.42;15.15;;;;;;;;;;4996142;28;20222;-70
2021/10/29 00:51:58;;;;;;;30.15;15.00;;;;;;;;;;4988353;28;20078;-70
2021/10/29 00:54:24;;;;;;;29.75;14.63;;;;;;;;;;5001173;28;20042;-71
2021/10/29 00:56:54;;;;;;;25.33;13.68;;;;;;;;;;5001881;28;20144;-71
2021/10/29 00:59:20;;;;;;;24.75;12.60;;;;;;;;;;4978444;28;20076;-71
2021/10/29 01:01:47;;;;;;;29.42;14.13;;;;;;;;;;5003511;28;20065;-70
2021/10/29 01:04:15;;;;;;;31.05;14.77;;;;;;;;;;4989685;28;20402;-70
2021/10/29 01:06:42;;;;;;;28.58;14.55;;;;;;;;;;4997758;28;20049;-71
2021/10/29 01:09:08;;;;;;;31.33;15.10;;;;;;;;;;4995454;28;20064;-72
2021/10/29 01:11:35;;;;;;;27.20;12.73;;;;;;;;;;5001721;28;20057;-71
2021/10/29 01:14:01;;;;;;;29.05;14.30;;;;;;;;;;5002236;28;20046;-70
2021/10/29 01:16:27;;;;;;;29.33;14.50;;;;;;;;;;4993511;28;21171;-70
2021/10/29 01:18:54;;;;;;;25.80;14.13;;;;;;;;;;4992790;28;20053;-70
2021/10/29 01:21:20;;;;;;;30.23;13.98;;;;;;;;;;4991229;28;20423;-70
2021/10/29 01:23:46;;;;;;;29.23;14.23;;;;;;;;;;5000575;28;20650;-70
2021/10/29 01:26:15;;;;;;;28.33;14.52;;;;;;;;;;4993012;28;20046;-70
2021/10/29 01:28:42;;;;;;;28.77;14.57;;;;;;;;;;4999976;28;20061;-71
2021/10/29 01:31:08;;;;;;;30.38;14.73;;;;;;;;;;4999145;28;20050;-70
2021/10/29 01:33:35;;;;;;;26.67;13.02;;;;;;;;;;4992363;28;20486;-70
2021/10/29 01:36:02;;;;;;;31.17;14.00;;;;;;;;;;5000625;28;20505;-71
2021/10/29 01:38:39;;;;;;;28.60;13.90;;;;;;;;;;4988936;28;20057;-70
2021/10/29 01:41:06;;;;;;;33.03;14.18;;;;;;;;;;4995364;28;20207;-70
2021/10/29 01:43:39;;;;;;;29.48;13.98;;;;;;;;;;4972893;28;20458;-70
2021/10/29 01:46:06;;;;;;;26.27;14.27;;;;;;;;;;4999120;28;20060;-70
2021/10/29 01:48:32;;;;;;;27.25;13.95;;;;;;;;;;4999575;28;20502;-70
2021/10/29 01:50:58;;;;;;;30.27;13.82;;;;;;;;;;4992116;28;20061;-70
2021/10/29 01:53:25;;;;;;;25.60;14.32;;;;;;;;;;5000304;28;20406;-70
2021/10/29 01:55:51;;;;;;;27.83;14.45;;;;;;;;;;4990262;28;20061;-71
2021/10/29 01:58:18;;;;;;;27.10;13.32;;;;;;;;;;4994498;28;20049;-71
2021/10/29 02:00:44;;;;;;;29.85;14.30;;;;;;;;;;4993337;28;20054;-71
2021/10/29 02:03:10;;;;;;;29.73;12.93;;;;;;;;;;5002023;28;20057;-71
2021/10/29 02:05:37;;;;;;;26.15;12.63;;;;;;;;;;5001425;28;20053;-71
2021/10/29 02:08:04;;;;;;;29.65;13.75;;;;;;;;;;4994239;28;20815;-71
2021/10/29 02:10:30;;;;;;;24.63;13.10;;;;;;;;;;4995091;28;20498;-71
2021/10/29 02:12:56;;;;;;;25.33;12.82;;;;;;;;;;4991415;28;20053;-72
2021/10/29 02:15:23;;;;;;;27.27;13.23;;;;;;;;;;5003017;28;20398;-71
2021/10/29 02:17:49;;;;;;;24.05;13.02;;;;;;;;;;4996890;28;20056;-71
2021/10/29 02:20:16;;;;;;;24.17;12.57;;;;;;;;;;5003090;28;20065;-71
2021/10/29 02:22:42;;;;;;;30.73;13.93;;;;;;;;;;5000791;28;20062;-71
2021/10/29 02:25:08;;;;;;;25.50;13.73;;;;;;;;;;4987354;28;20049;-71
2021/10/29 02:27:35;;;;;;;29.45;14.50;;;;;;;;;;5000865;28;20041;-71
2021/10/29 02:30:01;;;;;;;29.20;14.00;;;;;;;;;;4993338;28;20046;-70
2021/10/29 02:32:27;;;;;;;24.55;12.98;;;;;;;;;;4999028;28;20056;-70
2021/10/29 02:34:54;;;;;;;28.33;13.50;;;;;;;;;;4993746;28;20620;-70
2021/10/29 02:37:20;;;;;;;29.05;12.93;;;;;;;;;;4994297;28;20060;-70
2021/10/29 02:39:46;;;;;;;25.25;13.32;;;;;;;;;;4995175;28;20045;-70
2021/10/29 02:42:13;;;;;;;26.10;12.95;;;;;;;;;;4991652;28;20050;-70
2021/10/29 02:44:39;;;;;;;29.00;13.65;;;;;;;;;;4995555;28;20835;-70
2021/10/29 02:47:06;;;;;;;25.73;13.15;;;;;;;;;;4991251;28;20050;-70
2021/10/29 02:49:32;;;;;;;24.38;12.90;;;;;;;;;;4996757;28;20065;-70
2021/10/29 02:51:58;;;;;;;23.35;11.98;;;;;;;;;;4984992;28;20061;-70
2021/10/29 02:54:24;;;;;;;26.13;13.32;;;;;;;;;;4993517;28;21143;-70
2021/10/29 02:56:55;;;;;;;29.55;13.57;;;;;;;;;;4995661;28;20060;-70
2021/10/29 02:59:21;;;;;;;28.13;13.35;;;;;;;;;;4989212;28;20586;-70
2021/10/29 03:01:48;;;;;;;27.05;12.95;;;;;;;;;;4997816;28;20061;-70
2021/10/29 03:04:15;;;;;;;27.48;13.05;;;;;;;;;;4993071;28;20056;-70
2021/10/29 03:06:42;;;;;;;26.05;13.32;;;;;;;;;;4996739;28;20522;-70
2021/10/29 03:09:09;;;;;;;31.48;13.52;;;;;;;;;;4988100;28;20499;-70
2021/10/29 03:11:35;;;;;;;27.88;13.93;;;;;;;;;;4999022;28;20054;-70
2021/10/29 03:14:01;;;;;;;24.58;12.57;;;;;;;;;;4993296;28;20050;-70
2021/10/29 03:16:28;;;;;;;25.42;13.50;;;;;;;;;;4994357;28;20302;-70
2021/10/29 03:18:54;;;;;;;24.85;11.40;;;;;;;;;;4994458;28;20168;-70
2021/10/29 03:21:21;;;;;;;31.48;13.38;;;;;;;;;;4989867;28;20049;-70
2021/10/29 03:23:47;;;;;;;26.15;11.98;;;;;;;;;;4998545;28;20349;-70
2021/10/29 03:26:13;;;;;;;26.02;13.18;;;;;;;;;;4990723;28;20152;-70
2021/10/29 03:28:41;;;;;;;30.67;14.07;;;;;;;;;;4995984;28;20485;-70
2021/10/29 03:31:07;;;;;;;24.48;11.88;;;;;;;;;;4985686;28;20298;-70
2021/10/29 03:33:39;;;;;;;27.17;12.20;;;;;;;;;;4985311;28;20137;-70
2021/10/29 03:36:07;;;;;;;24.05;11.77;;;;;;;;;;4996622;28;20119;-70
2021/10/29 03:41:10;;;;;;;28.83;13.40;;;;;;;;;;4993453;28;20422;-70
2021/10/29 03:43:45;;;;;;;22.30;12.05;;;;;;;;;;4984023;28;20562;-70
2021/10/29 03:46:21;;;;;;;26.08;13.32;;;;;;;;;;4991723;28;20053;-70
2021/10/29 03:51:51;;;;;;;24.67;13.05;;;;;;;;;;4993825;28;20057;-70
2021/10/29 03:54:25;;;;;;;25.95;12.60;;;;;;;;;;4988902;28;20050;-70
2021/10/29 03:57:11;;;;;;;28.15;13.88;;;;;;;;;;4998236;28;20519;-70
2021/10/29 03:59:37;;;;;;;24.40;12.88;;;;;;;;;;4981348;28;20058;-70
2021/10/29 04:02:11;;;;;;;26.20;11.90;;;;;;;;;;4994881;28;20426;-70
2021/10/29 04:04:37;;;;;;;24.80;12.98;;;;;;;;;;4996490;28;20049;-70
2021/10/29 04:07:04;;;;;;;26.35;14.02;;;;;;;;;;4989604;28;20088;-70
2021/10/29 04:09:30;;;;;;;23.50;12.88;;;;;;;;;;5002420;28;20639;-70
2021/10/29 04:11:56;;;;;;;26.10;12.25;;;;;;;;;;4988462;28;20057;-70
2021/10/29 04:14:27;;;;;;;29.00;12.95;;;;;;;;;;4997372;28;20806;-70
2021/10/29 04:16:54;;;;;;;25.58;11.80;;;;;;;;;;4995514;28;20068;-70
2021/10/29 04:19:20;;;;;;;22.40;12.50;;;;;;;;;;4999961;28;20061;-70
2021/10/29 04:21:47;;;;;;;23.70;12.88;;;;;;;;;;5002125;28;20050;-70
2021/10/29 04:24:14;;;;;;;27.48;12.75;;;;;;;;;;4993710;28;20061;-70
2021/10/29 04:26:40;;;;;;;22.40;12.30;;;;;;;;;;4995319;28;20072;-70
2021/10/29 04:29:14;;;;;;;23.58;11.77;;;;;;;;;;4991069;28;20140;-70
2021/10/29 04:31:49;;;;;;;23.40;11.68;;;;;;;;;;4998579;28;20054;-70
2021/10/29 04:34:22;;;;;;;23.90;11.10;;;;;;;;;;4993771;28;20680;-70
2021/10/29 04:36:49;;;;;;;21.38;11.13;;;;;;;;;;5000333;28;20492;-70
2021/10/29 04:39:16;;;;;;;24.23;11.77;;;;;;;;;;4993511;28;20050;-70
2021/10/29 04:41:44;;;;;;;22.55;11.18;;;;;;;;;;4993391;28;20864;-70
2021/10/29 04:44:10;;;;;;;22.50;11.77;;;;;;;;;;4998325;28;20051;-70
2021/10/29 04:46:37;;;;;;;27.73;12.65;;;;;;;;;;4994907;28;20046;-70
2021/10/29 04:49:04;;;;;;;22.70;11.98;;;;;;;;;;5000322;28;20061;-70
2021/10/29 04:51:31;;;;;;;26.60;13.77;;;;;;;;;;4993587;28;20052;-70
2021/10/29 04:53:58;;;;;;;22.45;10.73;;;;;;;;;;4997019;28;20050;-70
2021/10/29 04:56:24;;;;;;;22.02;11.90;;;;;;;;;;4988974;28;20069;-70
2021/10/29 04:58:50;;;;;;;21.83;12.07;;;;;;;;;;4992395;28;20050;-70
2021/10/29 05:01:17;;;;;;;20.67;11.07;;;;;;;;;;4998361;28;20060;-70
2021/10/29 05:03:44;;;;;;;25.00;12.15;;;;;;;;;;4989513;28;20057;-70
2021/10/29 05:06:10;;;;;;;25.88;11.55;;;;;;;;;;4999599;28;20038;-70
2021/10/29 05:08:38;;;;;;;27.95;12.90;;;;;;;;;;4983678;28;20042;-69
2021/10/29 05:11:04;;;;;;;23.20;12.35;;;;;;;;;;4994889;28;20050;-70
2021/10/29 05:13:35;;;;;;;27.35;12.88;;;;;;;;;;4990912;28;20046;-70
2021/10/29 05:16:02;;;;;;;22.50;12.25;;;;;;;;;;4997964;28;20046;-70
2021/10/29 05:18:28;;;;;;;26.25;12.85;;;;;;;;;;5000588;28;20801;-70
2021/10/29 05:20:55;;;;;;;23.98;12.43;;;;;;;;;;4990139;28;20049;-70
2021/10/29 05:23:22;;;;;;;23.80;12.07;;;;;;;;;;4994511;28;20054;-70
2021/10/29 05:25:49;;;;;;;25.48;12.95;;;;;;;;;;4990736;28;20495;-70
2021/10/29 05:28:15;;;;;;;24.40;11.85;;;;;;;;;;4998834;28;20068;-70
2021/10/29 05:30:41;;;;;;;25.70;12.98;;;;;;;;;;4989990;28;20054;-70
2021/10/29 05:33:08;;;;;;;26.30;13.30;;;;;;;;;;4999848;28;20054;-70
2021/10/29 05:35:34;;;;;;;22.58;12.00;;;;;;;;;;4992712;28;20045;-70
2021/10/29 05:38:01;;;;;;;22.75;12.90;;;;;;;;;;4985673;28;20065;-70
2021/10/29 05:40:27;;;;;;;25.83;12.45;;;;;;;;;;4998448;28;20571;-70
2021/10/29 05:42:53;;;;;;;30.02;13.77;;;;;;;;;;4989151;28;20049;-70
2021/10/29 05:45:19;;;;;;;22.17;12.07;;;;;;;;;;4998688;28;20451;-70
2021/10/29 05:47:46;;;;;;;23.55;12.98;;;;;;;;;;4993967;28;20058;-70
2021/10/29 05:50:13;;;;;;;23.63;11.70;;;;;;;;;;4990918;28;20050;-70
2021/10/29 05:52:42;;;;;;;24.40;12.68;;;;;;;;;;4986887;28;20041;-70
2021/10/29 05:55:19;;;;;;;26.63;12.82;;;;;;;;;;4988782;28;20046;-70
2021/10/29 05:57:50;;;;;;;27.98;13.05;;;;;;;;;;4999676;28;20057;-70
2021/10/29 06:00:20;;;;;;;21.83;11.95;;;;;;;;;;4988032;28;20097;-70
2021/10/29 06:02:47;;;;;;;25.33;12.75;;;;;;;;;;4995213;28;20089;-70
2021/10/29 06:05:14;;;;;;;25.33;12.13;;;;;;;;;;4990130;28;20042;-70
2021/10/29 06:07:41;;;;;;;22.50;10.82;;;;;;;;;;4995529;28;20065;-70
2021/10/29 06:10:09;;;;;;;28.65;13.23;;;;;;;;;;4996221;28;20060;-70
2021/10/29 06:12:37;;;;;;;23.17;12.73;;;;;;;;;;4992638;28;20503;-70
2021/10/29 06:15:05;;;;;;;24.63;12.90;;;;;;;;;;4998111;28;20042;-70
2021/10/29 06:17:33;;;;;;;23.58;12.93;;;;;;;;;;4984656;28;20049;-70
2021/10/29 06:20:00;;;;;;;19.83;10.50;;;;;;;;;;4993890;28;20514;-70
2021/10/29 06:22:29;;;;;;;19.92;11.50;;;;;;;;;;4987171;28;20045;-70
2021/10/29 06:24:57;;;;;;;23.27;12.65;;;;;;;;;;4996164;28;20050;-70
2021/10/29 06:29:49;;;;;;;24.15;12.07;;;;;;;;;;4990812;28;20055;-70
2021/10/29 06:32:20;;;;;;;23.00;11.55;;;;;;;;;;4991238;28;20052;-70
2021/10/29 06:34:47;;;;;;;20.13;11.20;;;;;;;;;;4991169;28;20411;-70
2021/10/29 06:37:16;;;;;;;28.05;13.02;;;;;;;;;;4996915;28;20507;-70
2021/10/29 06:39:46;;;;;;;24.15;12.82;;;;;;;;;;4990646;28;20078;-70
2021/10/29 06:42:17;;;;;;;23.52;12.65;;;;;;;;;;4989779;28;20054;-70
2021/10/29 06:44:56;;;;;;;27.80;13.32;;;;;;;;;;4985586;28;20049;-70
2021/10/29 07:00:47;;;;;;;27.02;12.60;;;;;;;;;;4992946;28;20054;-70
2021/10/29 07:41:19;;;;;;;21.60;11.40;;;;;;;;;;4988964;28;20534;-69
2021/10/29 07:43:49;;;;;;;25.88;12.05;;;;;;;;;;4988956;28;20422;-69
2021/10/29 07:46:15;;;;;;;19.65;11.15;;;;;;;;;;4998156;28;20069;-70
2021/10/29 07:48:45;;;;;;;26.10;11.35;;;;;;;;;;4990684;28;20061;-70
2021/10/29 07:51:12;;;;;;;22.73;11.38;;;;;;;;;;4998890;28;20042;-70
2021/10/29 07:53:38;;;;;;;23.05;11.50;;;;;;;;;;4989949;28;20052;-70
2021/10/29 07:56:05;;;;;;;21.40;10.30;;;;;;;;;;4993194;28;20061;-69
2021/10/29 07:58:33;;;;;;;26.35;10.18;;;;;;;;;;4996908;28;20057;-70
2021/10/29 08:00:59;;;;;;;21.30;10.50;;;;;;;;;;4990724;28;20050;-71
2021/10/29 08:03:27;;;;;;;28.98;11.13;;;;;;;;;;4998481;28;20271;-70
2021/10/29 08:05:54;;;;;;;21.27;10.80;;;;;;;;;;4993210;28;20734;-70
2021/10/29 08:08:21;;;;;;;23.25;11.65;;;;;;;;;;4996698;28;20137;-70
2021/10/29 08:10:48;;;;;;;22.75;11.15;;;;;;;;;;4985138;28;20078;-71
2021/10/29 08:13:15;;;;;;;22.95;10.77;;;;;;;;;;4998123;28;20682;-70
2021/10/29 08:15:42;;;;;;;21.25;10.77;;;;;;;;;;4996667;28;20077;-70
2021/10/29 08:18:09;;;;;;;22.27;11.10;;;;;;;;;;4993553;28;20058;-70
2021/10/29 08:20:36;;;;;;;24.45;11.82;;;;;;;;;;4999247;28;20052;-70
2021/10/29 08:23:04;;;;;;;21.63;10.88;;;;;;;;;;4979896;28;20046;-70
2021/10/29 08:25:32;;;;;;;25.98;11.38;;;;;;;;;;4996863;28;20053;-70
2021/10/29 08:27:58;;;;;;;21.38;10.85;;;;;;;;;;4992725;28;20053;-69
2021/10/29 08:30:44;;;;;;;22.15;10.98;;;;;;;;;;4999180;28;20054;-70
2021/10/29 08:33:11;;;;;;;23.15;11.38;;;;;;;;;;4994841;28;20712;-70
2021/10/29 08:35:37;;;;;;;20.13;10.32;;;;;;;;;;4993677;28;20061;-70
2021/10/29 08:38:04;;;;;;;20.13;11.70;;;;;;;;;;4993746;28;20518;-70
2021/10/29 08:40:30;;;;;;;22.23;10.77;;;;;;;;;;4990686;28;20046;-69
2021/10/29 08:42:56;;;;;;;20.35;9.80;;;;;;;;;;4994451;28;20396;-70
2021/10/29 08:45:25;;;;;;;20.73;10.57;;;;;;;;;;4988014;28;20046;-70
2021/10/29 08:47:51;;;;;;;21.38;9.18;;;;;;;;;;4999019;28;20046;-70
2021/10/29 08:50:18;;;;;;;18.33;9.73;;;;;;;;;;4983176;28;20053;-70
2021/10/29 08:52:45;;;;;;;23.58;11.13;;;;;;;;;;4993159;28;20046;-70
2021/10/29 08:55:13;;;;;;;20.73;10.85;;;;;;;;;;4999038;28;20115;-70
2021/10/29 08:57:40;;;;;;;21.75;10.55;;;;;;;;;;4992797;28;20073;-70
2021/10/29 09:00:12;;;;;;;21.95;11.65;;;;;;;;;;4999219;28;20943;-70
2021/10/29 09:02:48;;;;;;;20.73;10.95;;;;;;;;;;4990475;28;20054;-70
2021/10/29 09:05:26;;;;;;;22.70;11.10;;;;;;;;;;4985394;28;20077;-70
2021/10/29 09:08:04;;;;;;;21.77;11.27;;;;;;;;;;4994352;28;20388;-70
2021/10/29 09:10:48;;;;;;;23.02;12.75;;;;;;;;;;4999138;28;20525;-70
2021/10/29 09:33:03;;;;;;;19.60;10.57;;;;;;;;;;4992219;28;20045;-70
2021/10/29 09:35:30;;;;;;;20.20;10.32;;;;;;;;;;4998425;28;20500;-70
2021/10/29 09:38:04;;;;;;;21.02;10.45;;;;;;;;;;4991827;28;20069;-70
2021/10/29 09:40:32;;;;;;;22.48;10.30;;;;;;;;;;4999194;28;20292;-70
2021/10/29 09:43:13;;;;;;;24.50;10.48;;;;;;;;;;4992368;28;20062;-70
2021/10/29 09:45:48;;;;;;;21.50;10.85;;;;;;;;;;4992113;28;20100;-70
2021/10/29 09:48:19;;;;;;;23.20;10.02;;;;;;;;;;4986152;28;20046;-70
2021/10/29 09:50:51;;;;;;;18.65;9.93;;;;;;;;;;4996213;28;20050;-70
2021/10/29 09:53:41;;;;;;;19.08;10.48;;;;;;;;;;4990767;28;20042;-70
2021/10/29 09:56:21;;;;;;;20.75;10.43;;;;;;;;;;4999090;28;20061;-70
2021/10/29 09:58:51;;;;;;;18.40;9.70;;;;;;;;;;4988259;28;20092;-70
2021/10/29 10:01:19;;;;;;;20.90;10.38;;;;;;;;;;4988368;28;20058;-70
2021/10/29 10:03:48;;;;;;;20.77;10.00;;;;;;;;;;4974668;28;20157;-70
2021/10/29 10:06:15;;;;;;;18.33;10.10;;;;;;;;;;4978323;28;20140;-70
2021/10/29 10:08:41;;;;;;;20.30;11.43;;;;;;;;;;4998467;28;20331;-70
2021/10/29 10:11:08;;;;;;;21.20;10.15;;;;;;;;;;4988272;28;20495;-70
2021/10/29 10:13:35;;;;;;;19.40;9.82;;;;;;;;;;4992523;28;20060;-70
2021/10/29 10:16:03;;;;;;;23.45;10.32;;;;;;;;;;4984768;28;20404;-70
2021/10/29 10:18:29;;;;;;;21.40;10.18;;;;;;;;;;4997317;28;20531;-70
2021/10/29 10:20:57;;;;;;;17.40;9.48;;;;;;;;;;4995245;28;20080;-70
2021/10/29 10:23:36;;;;;;;17.80;9.70;;;;;;;;;;4995352;28;20159;-70
2021/10/29 10:46:12;;;;;;;18.55;9.32;;;;;;;;;;4969930;28;20064;-70
2021/10/29 10:48:46;;;;;;;20.05;9.52;;;;;;;;;;4996096;28;20050;-70
2021/10/29 10:54:16;;;;;;;18.65;9.25;;;;;;;;;;4995523;28;20073;-70
2021/10/29 11:09:53;;;;;;;19.38;9.20;;;;;;;;;;4990876;28;20058;-70
2021/10/29 11:10:25;;;;;;;17.75;8.85;;;;;;;;;;4988947;28;20073;-70
2021/10/29 11:12:51;;;;;;;17.10;7.85;;;;;;;;;;4988254;28;20466;-70
2021/10/29 11:15:25;;;;;;;18.23;8.85;;;;;;;;;;4997048;28;20080;-70
2021/10/29 11:17:57;;;;;;;19.23;9.43;;;;;;;;;;4993839;28;20049;-70
2021/10/29 11:20:36;;;;;;;17.40;9.38;;;;;;;;;;5001408;28;20054;-70
2021/10/29 11:23:05;;;;;;;23.80;10.10;;;;;;;;;;4997325;28;20045;-70
2021/10/29 11:25:51;;;;;;;17.92;8.82;;;;;;;;;;4991819;28;20041;-70
2021/10/29 11:28:18;;;;;;;14.55;8.95;;;;;;;;;;5000044;28;20069;-71
2021/10/29 11:30:46;;;;;;;17.75;9.70;;;;;;;;;;4996438;28;20041;-69
2021/10/29 11:33:15;;;;;;;16.60;9.65;;;;;;;;;;5002248;28;20050;-70
2021/10/29 11:35:53;;;;;;;22.08;9.57;;;;;;;;;;4994782;28;20072;-70
2021/10/29 11:38:19;;;;;;;19.55;9.68;;;;;;;;;;4991568;28;20077;-70
2021/10/29 11:40:46;;;;;;;20.30;9.30;;;;;;;;;;4991476;28;20042;-70
2021/10/29 11:43:20;;;;;;;17.92;9.02;;;;;;;;;;5000662;28;20148;-70
2021/10/29 11:45:47;;;;;;;20.02;10.23;;;;;;;;;;4999390;28;20057;-70
2021/10/29 11:48:13;;;;;;;20.05;9.85;;;;;;;;;;4992001;28;20470;-70
2021/10/29 11:50:39;;;;;;;21.10;9.20;;;;;;;;;;4994632;28;20057;-70
2021/10/29 11:53:06;;;;;;;20.80;10.57;;;;;;;;;;4983979;28;20046;-70
2021/10/29 11:55:44;;;;;;;18.77;9.63;;;;;;;;;;5001045;28;20069;-70
2021/10/29 11:58:22;;;;;;;17.85;10.60;;;;;;;;;;4991418;28;20404;-70
2021/10/29 12:07:13;;;;;;;15.20;8.88;;;;;;;;;;4972351;28;20050;-71
2021/10/29 12:09:03;;;;;;;17.83;9.48;;;;;;;;;;4992376;28;20509;-70
2021/10/29 12:11:30;;;;;;;19.08;9.27;;;;;;;;;;4998009;28;20108;-70
2021/10/29 12:14:01;;;;;;;27.55;9.23;;;;;;;;;;5000346;28;20054;-70
2021/10/29 12:16:30;;;;;;;21.05;9.45;;;;;;;;;;4992464;28;20624;-70
2021/10/29 12:19:06;;;;;;;19.20;10.07;;;;;;;;;;4995567;28;20054;-70
2021/10/29 12:21:45;;;;;;;18.98;9.15;;;;;;;;;;4989714;28;20519;-70
2021/10/29 12:24:13;;;;;;;22.00;9.38;;;;;;;;;;4999576;28;20050;-70
2021/10/29 12:26:40;;;;;;;18.65;9.35;;;;;;;;;;4990550;28;20484;-71
2021/10/29 12:29:12;;;;;;;16.95;8.93;;;;;;;;;;5000177;28;20166;-70
2021/10/29 12:32:24;;;;;;;21.77;11.23;;;;;;;;;;4994786;28;20049;-70
2021/10/29 12:53:46;;;;;;;17.33;8.75;;;;;;;;;;4998329;28;20053;-70
2021/10/29 13:01:39;;;;;;;17.33;8.68;;;;;;;;;;4982489;28;20370;-70
2021/10/29 13:04:06;;;;;;;19.27;10.02;;;;;;;;;;4998345;28;20081;-70
2021/10/29 13:06:33;;;;;;;17.23;9.35;;;;;;;;;;4991486;28;20053;-70
2021/10/29 13:09:00;;;;;;;17.80;8.70;;;;;;;;;;4997064;28;20045;-71
2021/10/29 13:11:31;;;;;;;18.30;9.60;;;;;;;;;;4998926;28;20058;-70
2021/10/29 13:14:01;;;;;;;17.50;9.15;;;;;;;;;;4987066;28;20096;-70
2021/10/29 13:16:28;;;;;;;17.60;8.65;;;;;;;;;;4991240;28;20108;-71
2021/10/29 13:35:36;;;;;;;20.02;9.15;;;;;;;;;;4992756;28;20065;-71
2021/10/29 13:51:56;;;;;;;13.25;7.07;;;;;;;;;;4989941;28;20042;-70
2021/10/29 14:29:17;;;;;;;20.40;7.45;;;;;;;;;;4997560;28;20064;-70
2021/10/29 14:34:25;;;;;;;14.98;8.10;;;;;;;;;;4992865;28;20052;-70
2021/10/29 14:37:00;;;;;;;19.23;8.65;;;;;;;;;;4991461;28;20053;-70
2021/10/29 15:18:36;;;;;;;14.77;7.28;;;;;;;;;;4967129;28;20541;-70
2021/10/29 15:32:01;;;;;;;14.07;7.80;;;;;;;;;;4996787;28;20400;-69
2021/10/29 15:45:22;;;;;;;14.63;7.60;;;;;;;;;;4997907;28;20418;-69
2021/10/29 15:50:17;;;;;;;16.10;6.22;;;;;;;;;;4999075;28;20054;-70
2021/10/29 15:52:50;;;;;;;17.95;8.05;;;;;;;;;;4989594;28;20085;-69
2021/10/29 15:55:24;;;;;;;14.60;6.22;;;;;;;;;;4993075;28;20041;-70
2021/10/29 16:01:03;;;;;;;16.92;7.85;;;;;;;;;;4996550;28;20038;-70
2021/10/29 16:03:32;;;;;;;20.30;7.45;;;;;;;;;;4991057;28;20061;-70
2021/10/29 16:19:29;;;;;;;11.55;6.68;;;;;;;;;;4997583;28;20056;-70
2021/10/29 16:21:55;;;;;;;13.10;6.22;;;;;;;;;;4990089;28;20501;-70
2021/10/29 16:24:22;;;;;;;11.18;6.60;;;;;;;;;;5001577;28;20053;-70
2021/10/29 16:26:50;;;;;;;15.07;6.45;;;;;;;;;;4994687;28;20422;-70
2021/10/29 16:29:21;;;;;;;13.15;6.70;;;;;;;;;;5000901;28;20061;-70
2021/10/29 16:31:48;;;;;;;12.63;7.30;;;;;;;;;;4991867;28;20053;-70
2021/10/29 16:34:15;;;;;;;15.85;7.13;;;;;;;;;;4991439;28;20050;-69
2021/10/29 16:36:42;;;;;;;12.20;6.75;;;;;;;;;;4998975;28;20054;-69
2021/10/29 16:39:09;;;;;;;13.68;6.10;;;;;;;;;;4991595;28;20065;-70
2021/10/29 16:41:35;;;;;;;11.07;5.57;;;;;;;;;;4998722;28;20124;-70
2021/10/29 16:44:02;;;;;;;10.77;5.22;;;;;;;;;;4991709;28;20053;-70
2021/10/29 16:46:28;;;;;;;10.73;5.13;;;;;;;;;;4993981;28;20058;-70
2021/10/29 16:48:55;;;;;;;11.80;5.00;;;;;;;;;;4987888;28;20061;-70
2021/10/29 16:51:21;;;;;;;12.57;5.47;;;;;;;;;;5000028;28;20455;-70
2021/10/29 16:53:47;;;;;;;12.57;5.32;;;;;;;;;;5000348;28;20050;-70
2021/10/29 16:56:14;;;;;;;16.48;5.97;;;;;;;;;;4992363;28;20053;-70
2021/10/29 16:58:41;;;;;;;15.75;5.80;;;;;;;;;;4997979;28;20053;-69
2021/10/29 17:01:08;;;;;;;9.48;5.32;;;;;;;;;;4984846;28;20226;-69
2021/10/29 17:03:35;;;;;;;14.35;6.05;;;;;;;;;;4997713;28;20042;-69
2021/10/29 17:06:01;;;;;;;12.00;5.70;;;;;;;;;;4990223;28;20050;-69
2021/10/29 17:08:27;;;;;;;12.90;5.70;;;;;;;;;;4998826;28;20054;-69
2021/10/29 17:10:54;;;;;;;17.90;6.20;;;;;;;;;;4998708;28;20140;-70
2021/10/29 17:13:20;;;;;;;11.38;5.70;;;;;;;;;;4986764;28;20050;-70
2021/10/29 17:15:47;;;;;;;11.20;5.90;;;;;;;;;;4993279;28;20053;-69
2021/10/29 17:18:14;;;;;;;12.80;5.82;;;;;;;;;;4990877;28;20054;-69
2021/10/29 17:20:40;;;;;;;14.98;6.13;;;;;;;;;;4998602;28;20073;-70
2021/10/29 17:23:07;;;;;;;9.65;5.60;;;;;;;;;;4989156;28;20046;-69
2021/10/29 17:25:33;;;;;;;13.85;5.70;;;;;;;;;;4998395;28;20065;-69
2021/10/29 17:28:00;;;;;;;11.05;5.90;;;;;;;;;;4993846;28;20476;-69
2021/10/29 17:30:26;;;;;;;13.80;5.82;;;;;;;;;;4988648;28;20365;-69
2021/10/29 17:32:53;;;;;;;11.82;5.25;;;;;;;;;;4998469;28;20054;-69
2021/10/29 17:35:19;;;;;;;10.20;5.13;;;;;;;;;;4990527;28;20056;-69
2021/10/29 17:37:46;;;;;;;7.22;4.28;;;;;;;;;;4997359;28;20088;-69
2021/10/29 17:40:13;;;;;;;12.38;4.65;;;;;;;;;;4990422;28;20076;-70
2021/10/29 17:42:39;;;;;;;8.52;4.32;;;;;;;;;;4992386;28;20109;-68
2021/10/29 17:45:08;;;;;;;8.10;4.03;;;;;;;;;;4994982;28;20053;-68
2021/10/29 17:47:34;;;;;;;8.02;4.15;;;;;;;;;;4990372;28;20594;-70
2021/10/29 17:50:01;;;;;;;9.82;4.25;;;;;;;;;;4997012;28;20593;-68
2021/10/29 17:52:27;;;;;;;6.60;3.65;;;;;;;;;;4988822;28;20081;-69
2021/10/29 17:54:56;;;;;;;7.40;3.80;;;;;;;;;;4996156;28;20046;-68
2021/10/29 17:57:24;;;;;;;;;;;;;;;;;;4983192;28;20056;-68
2021/10/29 17:59:51;;;;;;;9.27;3.88;;;;;;;;;;4995916;28;19925;-68
2021/10/29 18:02:24;;;;;;;7.43;3.58;;;;;;;;;;4992183;28;20054;-69
2021/10/29 18:04:52;;;;;;;6.65;3.55;;;;;;;;;;4996556;28;20536;-69
2021/10/29 18:07:20;;;;;;;5.85;3.22;;;;;;;;;;4997944;28;20050;-69
2021/10/29 18:09:47;;;;;;;5.93;3.03;;;;;;;;;;4983379;28;20046;-68
2021/10/29 18:12:14;;;;;;;6.53;3.53;;;;;;;;;;4993570;28;20738;-68
2021/10/29 18:14:46;;;;;;;6.38;3.25;;;;;;;;;;4982232;28;20569;-69
2021/10/29 18:17:14;;;;;;;5.50;3.22;;;;;;;;;;4998028;28;20049;-69
2021/10/29 18:19:41;;;;;;;7.82;3.67;;;;;;;;;;4990231;28;20050;-69
2021/10/29 18:22:07;;;;;;;10.52;4.18;;;;;;;;;;4996808;28;20522;-69
2021/10/29 18:24:34;;;;;;;9.85;3.70;;;;;;;;;;4984826;28;20107;-69
2021/10/29 18:27:01;;;;;;;12.18;4.00;;;;;;;;;;4985791;28;20502;-69
2021/10/29 18:29:27;;;;;;;9.20;3.95;;;;;;;;;;4996743;28;20069;-69
2021/10/29 18:31:53;;;;;;;8.75;3.85;;;;;;;;;;4989038;28;20058;-69
2021/10/29 18:34:20;;;;;;;8.93;3.65;;;;;;;;;;4997168;28;20057;-69
2021/10/29 18:36:46;;;;;;;7.45;3.58;;;;;;;;;;4985363;28;20383;-69
2021/10/29 18:39:12;;;;;;;10.43;4.25;;;;;;;;;;4990114;28;20044;-69
2021/10/29 18:41:39;;;;;;;10.15;4.28;;;;;;;;;;4997338;28;20144;-70
2021/10/29 18:44:06;;;;;;;9.57;4.45;;;;;;;;;;4989526;28;20058;-69
2021/10/29 18:46:32;;;;;;;9.55;4.25;;;;;;;;;;4998937;28;20049;-69
2021/10/29 18:48:59;;;;;;;9.00;4.38;;;;;;;;;;4991742;28;20049;-69
2021/10/29 18:51:25;;;;;;;11.13;4.35;;;;;;;;;;4994125;28;20053;-69
2021/10/29 18:53:52;;;;;;;9.45;4.78;;;;;;;;;;4986760;28;20046;-70
2021/10/29 18:56:19;;;;;;;9.48;5.00;;;;;;;;;;4994752;28;20049;-69
2021/10/29 18:58:46;;;;;;;10.67;5.23;;;;;;;;;;4997470;28;20053;-69
2021/10/29 19:01:12;;;;;;;9.15;5.10;;;;;;;;;;4989966;28;20521;-68
2021/10/29 19:03:39;;;;;;;8.90;5.40;;;;;;;;;;4999271;28;20154;-69
2021/10/29 19:06:05;;;;;;;7.88;4.45;;;;;;;;;;4985815;28;20505;-69
2021/10/29 19:08:32;;;;;;;14.30;5.28;;;;;;;;;;4995770;28;20385;-68
2021/10/29 19:10:58;;;;;;;12.25;5.65;;;;;;;;;;4992757;28;20551;-69
2021/10/29 19:13:25;;;;;;;8.73;4.95;;;;;;;;;;5000082;28;20054;-69
2021/10/29 19:15:51;;;;;;;9.07;5.38;;;;;;;;;;5000044;28;20430;-68
2021/10/29 19:18:17;;;;;;;8.48;4.70;;;;;;;;;;4987555;28;20070;-69
2021/10/29 19:20:44;;;;;;;19.30;5.53;;;;;;;;;;4989908;28;20058;-69